Time;durP1;ratioP1;P1;durP2;ratioP2;P2;SDS_P1;SDS_P2;PMS_P1;PMS_P2;Temp;Humidity;BMP_temperature;BMP_pressure;BME280_temperature;BME280_humidity;BME280_pressure;Samples;Min_cycle;Max_cycle;Signal;HPM_P1;HPM_P2
2024/01/21 00:01:06;;;;;;;8.00;4.80;;;;;;;0.28;75.76;99167.79;105180;1263;61123;-28
2024/01/21 00:11:09;;;;;;;10.80;5.80;;;;;;;0.66;73.51;99175.77;102731;1292;600017;-28
2024/01/21 00:13:37;;;;;;;8.70;5.80;;;;;;;0.44;74.20;99169.59;105042;1266;61123;-28
2024/01/21 00:16:04;;;;;;;9.50;5.30;;;;;;;0.35;74.21;99152.53;104826;1265;61177;-28
2024/01/21 00:18:32;;;;;;;14.30;5.80;;;;;;;0.70;73.57;99180.41;104987;1267;71099;-28
2024/01/21 00:21:00;;;;;;;9.10;5.20;;;;;;;0.84;72.51;99175.07;104807;1267;74310;-28
2024/01/21 00:23:27;;;;;;;8.20;5.20;;;;;;;0.82;72.60;99176.88;104824;1267;72642;-28
2024/01/21 00:25:55;;;;;;;10.60;5.80;;;;;;;0.68;72.97;99175.69;104983;1264;181439;-28
2024/01/21 00:28:22;;;;;;;9.70;4.70;;;;;;;0.53;73.29;99163.11;105068;1269;61189;-28
2024/01/21 00:30:50;;;;;;;6.90;5.20;;;;;;;0.56;73.49;99177.70;104824;1264;71006;-28
2024/01/21 00:33:20;;;;;;;11.00;4.60;;;;;;;0.87;72.32;99175.65;105093;1264;74426;-28
2024/01/21 00:43:27;;;;;;;7.40;5.10;;;;;;;0.69;72.59;99185.20;102720;1292;600836;-27
2024/01/21 00:45:55;;;;;;;8.50;4.80;;;;;;;0.59;72.98;99189.55;104797;1264;61168;-28
2024/01/21 00:48:23;;;;;;;7.70;4.60;;;;;;;1.01;71.35;99193.92;104856;1263;61097;-28
2024/01/21 00:50:51;;;;;;;7.60;4.70;;;;;;;1.17;70.48;99195.50;104895;1272;72226;-28
2024/01/21 00:53:18;;;;;;;8.80;4.30;;;;;;;1.05;70.65;99195.79;104830;1264;74330;-28
2024/01/21 00:55:46;;;;;;;7.40;4.40;;;;;;;0.87;71.30;99199.58;104849;1266;72670;-28
2024/01/21 01:05:51;;;;;;;8.40;5.80;;;;;;;1.06;70.49;99182.06;102663;1296;599904;-26
2024/01/21 01:08:18;;;;;;;7.70;4.80;;;;;;;0.95;70.60;99193.27;104888;1270;61187;-27
2024/01/21 01:10:46;;;;;;;7.30;4.40;;;;;;;0.84;70.87;99183.29;104811;1272;61190;-28
2024/01/21 01:13:13;;;;;;;8.50;5.60;;;;;;;0.76;71.71;99195.75;105031;1270;70935;-28
2024/01/21 01:15:41;;;;;;;8.00;4.90;;;;;;;0.63;72.02;99184.63;104815;1271;73129;-28
2024/01/21 01:18:08;;;;;;;11.50;5.40;;;;;;;0.74;71.83;99197.00;104815;1272;72656;-27
2024/01/21 01:28:15;;;;;;;6.30;4.40;;;;;;;0.82;71.44;99209.67;102633;1295;599552;-26
2024/01/21 01:30:43;;;;;;;12.30;4.80;;;;;;;0.71;71.74;99207.55;104788;1267;61257;-27
2024/01/21 01:33:11;;;;;;;8.80;4.50;;;;;;;0.70;72.32;99220.23;104834;1270;61203;-28
2024/01/21 01:35:39;;;;;;;8.30;4.70;;;;;;;1.13;70.52;99206.08;104781;1267;71486;-28
2024/01/21 01:38:06;;;;;;;7.90;4.50;;;;;;;1.12;69.90;99193.45;104785;1267;73083;-28
2024/01/21 01:40:34;;;;;;;8.40;4.30;;;;;;;1.04;69.95;99199.57;104786;1266;71502;-28
2024/01/21 01:43:02;;;;;;;6.60;4.80;;;;;;;0.85;70.91;99210.27;104909;1269;179316;-28
2024/01/21 01:45:30;;;;;;;7.30;4.10;;;;;;;0.68;71.47;99207.98;104896;1269;61181;-28
2024/01/21 01:47:58;;;;;;;7.20;4.20;;;;;;;0.62;71.91;99209.23;105033;1264;71071;-28
2024/01/21 01:50:26;;;;;;;7.00;4.90;;;;;;;0.82;71.18;99204.05;104876;1264;74281;-28
2024/01/21 01:52:53;;;;;;;9.00;4.90;;;;;;;1.11;70.06;99220.38;105025;1267;72620;-29
2024/01/21 01:55:21;;;;;;;7.60;4.50;;;;;;;1.00;69.87;99219.93;104802;1267;61173;-28
2024/01/21 01:57:48;;;;;;;9.60;3.90;;;;;;;0.96;69.98;99222.13;104867;1269;61195;-28
2024/01/21 02:00:16;;;;;;;6.90;4.40;;;;;;;0.85;70.20;99199.33;105016;1267;71795;-28
2024/01/21 02:02:44;;;;;;;6.70;4.20;;;;;;;0.67;70.76;99232.78;104785;1267;74355;-28
2024/01/21 02:05:11;;;;;;;6.10;3.60;;;;;;;0.75;70.73;99224.14;104773;1269;71001;-28
2024/01/21 02:07:39;;;;;;;4.20;3.40;;;;;;;1.07;69.41;99220.34;104960;1264;61153;-28
2024/01/21 02:10:07;;;;;;;6.40;4.10;;;;;;;1.11;68.92;99210.61;105029;1264;61045;-28
2024/01/21 02:12:40;;;;;;;6.20;4.70;;;;;;;0.97;69.68;99234.23;104884;1264;73040;-28
2024/01/21 02:15:08;;;;;;;6.80;4.40;;;;;;;0.81;70.03;99251.78;104852;1266;73174;-28
2024/01/21 02:17:36;;;;;;;6.80;4.70;;;;;;;0.67;70.79;99250.23;104823;1267;72660;-28
2024/01/21 02:20:07;;;;;;;6.70;3.90;;;;;;;0.61;71.55;99263.94;105159;1264;61173;-28
2024/01/21 02:30:40;;;;;;;8.10;4.20;;;;;;;0.65;71.62;99277.83;102577;1289;614015;-27
2024/01/21 02:33:08;;;;;;;7.40;4.80;;;;;;;0.57;72.85;99278.95;105083;1264;61026;-27
2024/01/21 02:35:36;;;;;;;9.50;5.00;;;;;;;0.39;74.22;99283.04;105114;1264;61263;-27
2024/01/21 02:38:03;;;;;;;5.60;3.50;;;;;;;0.48;73.88;99290.73;105589;1262;72115;-27
2024/01/21 02:40:31;;;;;;;7.40;4.20;;;;;;;0.88;72.89;99309.09;105700;1254;73032;-27
2024/01/21 02:42:58;;;;;;;5.90;4.20;;;;;;;0.61;73.66;99308.91;105628;1254;195004;-28
2024/01/21 02:45:25;;;;;;;11.30;4.60;;;;;;;0.37;74.61;99315.71;105993;1251;61028;-28
2024/01/21 02:47:52;;;;;;;7.00;4.00;;;;;;;0.27;75.21;99317.26;105986;1257;61021;-27
2024/01/21 02:50:19;;;;;;;8.70;3.70;;;;;;;0.05;76.23;99324.50;105897;1251;72052;-28
2024/01/21 02:52:46;;;;;;;5.50;3.30;;;;;;;0.55;75.26;99338.98;105742;1251;74098;-27
2024/01/21 02:55:13;;;;;;;6.70;3.50;;;;;;;0.62;74.40;99354.48;105945;1251;72473;-27
2024/01/21 02:57:39;;;;;;;7.30;4.00;;;;;;;0.66;74.09;99365.61;105957;1251;61048;-27
2024/01/21 03:00:07;;;;;;;7.10;3.20;;;;;;;0.61;74.31;99371.77;105939;1250;61160;-27
2024/01/21 03:02:35;;;;;;;5.10;3.60;;;;;;;0.31;73.94;99368.69;105583;1257;71539;-27
2024/01/21 03:05:02;;;;;;;6.80;3.50;;;;;;;0.06;72.47;99369.17;105970;1251;74699;-27
2024/01/21 03:07:29;;;;;;;6.30;4.40;;;;;;;0.23;68.54;99364.52;105964;1251;72609;-27
2024/01/21 03:09:56;;;;;;;5.80;3.50;;;;;;;0.26;66.73;99364.80;105870;1251;61036;-27
2024/01/21 03:12:23;;;;;;;4.80;3.50;;;;;;;0.23;66.45;99384.20;105797;1257;61057;-27
2024/01/21 03:14:49;;;;;;;5.50;4.20;;;;;;;-0.10;66.48;99378.41;105822;1251;73046;-27
2024/01/21 03:17:16;;;;;;;6.10;4.40;;;;;;;-0.30;67.30;99389.80;105768;1251;74290;-27
2024/01/21 03:19:43;;;;;;;4.70;3.40;;;;;;;-0.40;67.19;99398.29;105964;1251;72635;-27
2024/01/21 03:22:10;;;;;;;5.60;4.50;;;;;;;-0.49;67.24;99401.63;106006;1250;61039;-28
2024/01/21 03:24:37;;;;;;;6.60;4.60;;;;;;;-0.59;67.05;99394.27;105969;1251;61263;-28
2024/01/21 03:27:04;;;;;;;7.00;4.70;;;;;;;-0.62;66.95;99417.02;105792;1256;71996;-28
2024/01/21 03:29:31;;;;;;;6.80;4.90;;;;;;;-0.74;67.44;99420.27;105789;1254;74120;-28
2024/01/21 03:31:57;;;;;;;5.60;4.40;;;;;;;-0.48;66.91;99419.00;105923;1254;72463;-29
2024/01/21 03:34:24;;;;;;;8.40;5.40;;;;;;;-0.45;66.33;99429.30;105506;1254;61158;-28
2024/01/21 03:36:51;;;;;;;7.20;5.00;;;;;;;-0.52;66.67;99427.46;105662;1252;61116;-28
2024/01/21 03:39:19;;;;;;;6.90;5.20;;;;;;;-0.51;66.49;99434.77;105724;1254;73280;-28
2024/01/21 03:41:47;;;;;;;7.70;4.80;;;;;;;-0.58;67.15;99444.87;105843;1256;74382;-27
2024/01/21 03:44:14;;;;;;;8.60;5.50;;;;;;;-0.69;67.27;99440.44;105827;1254;71759;-28
2024/01/21 03:46:41;;;;;;;8.80;6.20;;;;;;;-0.86;68.09;99462.55;105876;1255;61023;-28
2024/01/21 03:49:08;;;;;;;8.20;5.70;;;;;;;-0.86;68.84;99471.41;105825;1256;61087;-28
2024/01/21 03:51:35;;;;;;;6.60;5.10;;;;;;;-0.52;67.56;99482.56;105964;1254;72986;-27
2024/01/21 03:54:02;;;;;;;7.90;5.70;;;;;;;-0.32;67.13;99482.34;105881;1254;74822;-28
2024/01/21 03:56:29;;;;;;;9.40;6.80;;;;;;;-0.52;67.26;99474.56;105906;1254;72586;-28
2024/01/21 03:58:56;;;;;;;10.80;7.40;;;;;;;-0.83;68.17;99494.52;105812;1254;61022;-27
2024/01/21 04:01:22;;;;;;;10.00;6.20;;;;;;;-0.70;68.59;99502.69;105886;1257;61084;-27
2024/01/21 04:03:49;;;;;;;12.10;7.60;;;;;;;-0.96;69.63;99498.09;105833;1256;72935;-27
2024/01/21 04:06:16;;;;;;;13.10;6.60;;;;;;;-1.07;70.22;99514.23;105916;1254;74835;-28
2024/01/21 04:08:43;;;;;;;9.60;6.10;;;;;;;-0.96;69.75;99500.84;105898;1254;72587;-28
2024/01/21 04:11:10;;;;;;;10.00;7.60;;;;;;;-0.64;68.36;99527.60;105892;1254;61390;-28
2024/01/21 04:13:36;;;;;;;11.90;6.70;;;;;;;-0.96;68.99;99528.96;105834;1254;61125;-28
2024/01/21 04:16:04;;;;;;;9.70;6.90;;;;;;;-0.72;68.82;99542.82;105790;1255;72948;-28
2024/01/21 04:18:32;;;;;;;11.40;8.00;;;;;;;-1.11;69.15;99516.89;105581;1254;75028;-28
2024/01/21 04:21:03;;;;;;;12.30;7.80;;;;;;;-1.23;69.58;99539.52;105804;1254;72658;-28
2024/01/21 04:23:30;;;;;;;12.00;8.20;;;;;;;-1.44;70.10;99536.98;105631;1254;61176;-28
2024/01/21 04:25:57;;;;;;;11.30;7.40;;;;;;;-1.16;69.87;99562.20;105628;1256;61096;-28
2024/01/21 04:28:27;;;;;;;12.50;9.00;;;;;;;-1.09;68.91;99559.80;105756;1257;72973;-28
2024/01/21 04:30:53;;;;;;;10.30;7.30;;;;;;;-1.18;69.28;99570.77;105860;1254;74246;-28
2024/01/21 04:33:20;;;;;;;9.90;7.90;;;;;;;-1.13;69.20;99576.60;105862;1254;72649;-27
2024/01/21 04:35:48;;;;;;;11.50;7.70;;;;;;;-1.42;69.83;99586.15;105890;1255;61019;-28
2024/01/21 04:38:14;;;;;;;9.40;6.30;;;;;;;-1.38;70.23;99578.91;105880;1254;61114;-28
2024/01/21 04:40:41;;;;;;;13.20;8.40;;;;;;;-1.49;70.61;99589.91;105848;1254;73576;-27
2024/01/21 04:43:08;;;;;;;10.60;6.80;;;;;;;-1.17;69.89;99586.59;105850;1254;74473;-27
2024/01/21 04:45:35;;;;;;;11.60;7.90;;;;;;;-0.81;68.67;99603.73;105569;1254;72730;-28
2024/01/21 04:48:03;;;;;;;12.60;7.40;;;;;;;-0.97;69.47;99608.25;105641;1254;61089;-28
2024/01/21 04:50:30;;;;;;;14.30;7.90;;;;;;;-1.18;70.49;99614.89;105770;1252;61073;-27
2024/01/21 04:52:57;;;;;;;11.00;7.10;;;;;;;-1.10;70.55;99623.73;105846;1256;72759;-27
2024/01/21 04:55:23;;;;;;;9.10;6.50;;;;;;;-1.35;71.70;99631.30;105874;1254;74086;-27
2024/01/21 04:57:50;;;;;;;14.20;8.40;;;;;;;-1.37;72.75;99627.59;105675;1254;73179;-27
2024/01/21 05:00:18;;;;;;;10.40;7.10;;;;;;;-0.99;72.12;99644.09;105655;1254;61030;-27
2024/01/21 05:02:45;;;;;;;14.00;7.40;;;;;;;-1.00;72.18;99657.59;105851;1257;61266;-28
2024/01/21 05:05:12;;;;;;;9.70;7.10;;;;;;;-1.00;71.81;99654.35;105938;1256;73110;-28
2024/01/21 05:07:38;;;;;;;10.00;7.00;;;;;;;-1.17;72.43;99659.52;105850;1257;74365;-28
2024/01/21 05:10:06;;;;;;;13.90;8.30;;;;;;;-1.48;73.21;99661.92;105899;1253;72573;-28
2024/01/21 05:12:33;;;;;;;14.60;9.00;;;;;;;-1.67;73.67;99661.30;105704;1253;61084;-27
2024/01/21 05:15:00;;;;;;;11.70;7.60;;;;;;;-1.37;73.58;99669.48;105916;1257;61080;-28
2024/01/21 05:17:27;;;;;;;13.40;8.60;;;;;;;-1.07;71.89;99671.38;105913;1254;73091;-29
2024/01/21 05:19:54;;;;;;;11.90;7.40;;;;;;;-1.15;72.10;99679.07;105873;1254;74376;-29
2024/01/21 05:22:21;;;;;;;12.00;8.30;;;;;;;-1.33;72.72;99677.60;105814;1256;72672;-28
2024/01/21 05:24:48;;;;;;;14.80;8.90;;;;;;;-1.47;73.55;99687.77;105819;1254;61080;-28
2024/01/21 05:27:15;;;;;;;14.10;9.10;;;;;;;-1.47;73.65;99694.93;105601;1256;61093;-28
2024/01/21 05:29:42;;;;;;;15.30;9.20;;;;;;;-1.41;73.80;99702.98;105839;1255;72986;-27
2024/01/21 05:32:09;;;;;;;21.60;9.60;;;;;;;-0.94;72.30;99715.88;105928;1254;74333;-28
2024/01/21 05:34:36;;;;;;;13.40;8.70;;;;;;;-1.08;72.24;99718.77;105795;1255;72989;-28
2024/01/21 05:37:04;;;;;;;17.60;10.00;;;;;;;-0.98;72.20;99725.38;105729;1254;61064;-28
2024/01/21 05:39:34;;;;;;;12.60;8.10;;;;;;;-1.09;72.24;99734.15;105766;1254;61108;-28
2024/01/21 05:42:02;;;;;;;17.00;10.60;;;;;;;-1.35;73.49;99738.45;105834;1256;73005;-28
2024/01/21 05:44:28;;;;;;;17.10;9.30;;;;;;;-1.56;74.11;99741.61;105701;1257;73468;-28
2024/01/21 05:46:55;;;;;;;12.20;9.20;;;;;;;-1.31;74.28;99739.23;105866;1254;72742;-28
2024/01/21 05:49:25;;;;;;;16.10;10.80;;;;;;;-1.10;72.99;99743.35;105742;1256;61256;-27
2024/01/21 05:51:53;;;;;;;19.00;11.40;;;;;;;-1.22;73.27;99737.49;105930;1257;61045;-28
2024/01/21 05:54:20;;;;;;;16.20;9.30;;;;;;;-1.24;73.47;99756.11;105831;1254;73500;-27
2024/01/21 05:56:47;;;;;;;16.60;10.00;;;;;;;-1.33;73.73;99758.86;105914;1254;73208;-27
2024/01/21 05:59:16;;;;;;;16.60;9.50;;;;;;;-1.53;74.45;99760.63;105590;1254;72740;-27
2024/01/21 06:01:44;;;;;;;17.90;10.50;;;;;;;-1.48;74.73;99765.30;105720;1253;61118;-27
2024/01/21 06:04:12;;;;;;;13.90;9.40;;;;;;;-0.81;72.93;99781.76;105798;1252;61132;-27
2024/01/21 06:06:39;;;;;;;17.60;9.60;;;;;;;-1.12;73.03;99769.65;105758;1254;73639;-27
2024/01/21 06:09:08;;;;;;;15.40;10.70;;;;;;;-1.31;74.20;99772.98;105907;1256;74273;-27
2024/01/21 06:11:35;;;;;;;15.70;9.00;;;;;;;-1.42;74.93;99784.25;105717;1256;72527;-28
2024/01/21 06:14:02;;;;;;;20.40;10.20;;;;;;;-1.46;75.27;99787.58;105734;1257;61068;-28
2024/01/21 06:16:29;;;;;;;18.00;11.30;;;;;;;-1.43;75.31;99795.16;105741;1256;61124;-27
2024/01/21 06:18:56;;;;;;;20.40;10.20;;;;;;;-1.11;74.28;99806.44;105822;1254;73074;-27
2024/01/21 06:21:23;;;;;;;18.50;10.00;;;;;;;-1.06;73.56;99805.15;105820;1256;74733;-27
2024/01/21 06:23:50;;;;;;;18.40;10.70;;;;;;;-1.23;74.12;99805.16;105592;1257;73360;-27
2024/01/21 06:26:19;;;;;;;15.90;8.90;;;;;;;-1.32;74.44;99802.10;105757;1257;61076;-27
2024/01/21 06:28:47;;;;;;;20.40;11.40;;;;;;;-1.59;75.73;99804.85;105583;1260;61169;-27
2024/01/21 06:31:14;;;;;;;16.50;9.30;;;;;;;-1.53;76.03;99806.95;105847;1254;72797;-27
2024/01/21 06:33:41;;;;;;;15.70;8.90;;;;;;;-1.22;75.01;99802.59;105906;1256;74354;-27
2024/01/21 06:36:08;;;;;;;17.40;10.60;;;;;;;-1.08;74.07;99815.57;105723;1257;72498;-27
2024/01/21 06:38:35;;;;;;;16.90;10.90;;;;;;;-1.41;75.01;99814.55;105461;1254;61102;-28
2024/01/21 06:41:02;;;;;;;17.10;9.50;;;;;;;-1.50;75.48;99816.27;105863;1260;61108;-27
2024/01/21 06:43:29;;;;;;;15.20;9.00;;;;;;;-1.78;76.55;99815.41;105795;1256;73796;-27
2024/01/21 06:45:56;;;;;;;17.10;10.10;;;;;;;-1.43;76.15;99825.48;105852;1255;74405;-27
2024/01/21 06:48:23;;;;;;;13.00;8.70;;;;;;;-1.30;75.05;99815.02;105885;1254;72597;-27
2024/01/21 06:50:51;;;;;;;16.50;10.20;;;;;;;-1.42;75.31;99832.27;105766;1255;61087;-27
2024/01/21 06:53:18;;;;;;;16.20;9.90;;;;;;;-1.55;76.15;99844.46;105696;1255;61342;-27
2024/01/21 06:55:45;;;;;;;13.30;9.00;;;;;;;-1.36;75.90;99846.81;105676;1260;73914;-27
2024/01/21 06:58:12;;;;;;;15.20;8.40;;;;;;;-1.60;77.16;99838.59;105765;1257;74264;-27
2024/01/21 07:00:39;;;;;;;11.90;8.10;;;;;;;-1.09;75.37;99849.67;105703;1254;72534;-27
2024/01/21 07:03:06;;;;;;;16.90;9.80;;;;;;;-0.88;74.15;99859.48;105827;1257;61132;-27
2024/01/21 07:05:33;;;;;;;12.80;9.20;;;;;;;-1.20;75.53;99863.89;105760;1256;61144;-27
2024/01/21 07:08:00;;;;;;;13.10;8.30;;;;;;;-1.14;75.47;99865.46;105833;1254;72632;-27
2024/01/21 07:10:27;;;;;;;14.60;9.00;;;;;;;-1.27;75.99;99871.34;105883;1254;74157;-27
2024/01/21 07:12:55;;;;;;;14.70;8.80;;;;;;;-1.50;77.19;99871.96;105843;1257;72570;-27
2024/01/21 07:15:24;;;;;;;18.40;11.30;;;;;;;-1.54;77.68;99876.12;105860;1257;61207;-27
2024/01/21 07:17:51;;;;;;;17.00;9.30;;;;;;;-1.51;77.71;99891.89;105740;1253;61101;-27
2024/01/21 07:20:18;;;;;;;16.60;9.30;;;;;;;-1.10;76.74;99906.30;105891;1257;73643;-27
2024/01/21 07:22:45;;;;;;;18.60;10.60;;;;;;;-1.25;76.79;99905.89;105889;1257;74110;-27
2024/01/21 07:25:14;;;;;;;14.70;9.00;;;;;;;-1.58;78.24;99912.45;105854;1255;72472;-29
2024/01/21 07:27:42;;;;;;;17.80;9.90;;;;;;;-1.67;79.20;99914.31;105837;1254;61239;-28
2024/01/21 07:30:11;;;;;;;14.90;8.50;;;;;;;-1.32;78.58;99924.59;105889;1254;61102;-28
2024/01/21 07:32:39;;;;;;;14.90;8.20;;;;;;;-1.19;77.54;99923.00;105865;1257;71797;-28
2024/01/21 07:35:08;;;;;;;15.30;8.60;;;;;;;-1.25;77.66;99929.77;105727;1259;74379;-28
2024/01/21 07:37:36;;;;;;;15.20;9.90;;;;;;;-1.53;78.39;99939.45;105735;1257;72630;-28
2024/01/21 07:40:04;;;;;;;16.90;9.60;;;;;;;-1.58;79.27;99936.46;105736;1260;61160;-29
2024/01/21 07:42:33;;;;;;;18.30;10.50;;;;;;;-1.47;78.75;99932.88;105720;1259;61166;-28
2024/01/21 07:44:59;;;;;;;19.10;9.40;;;;;;;-1.23;77.89;99943.18;105751;1258;73892;-28
2024/01/21 07:47:26;;;;;;;20.90;11.40;;;;;;;-1.35;78.19;99950.05;105810;1257;74347;-28
2024/01/21 07:49:53;;;;;;;17.70;11.40;;;;;;;-1.33;78.17;99943.02;105809;1257;72502;-28
2024/01/21 07:52:20;;;;;;;16.90;11.10;;;;;;;-1.55;79.18;99953.27;105595;1256;61681;-28
2024/01/21 07:54:47;;;;;;;13.50;8.50;;;;;;;-1.36;79.22;99955.85;105760;1257;61263;-28
2024/01/21 07:57:14;;;;;;;14.20;9.30;;;;;;;-1.25;78.52;99958.02;105785;1257;73823;-28
2024/01/21 07:59:41;;;;;;;16.30;9.40;;;;;;;-1.20;78.34;99955.89;105877;1254;74131;-28
2024/01/21 08:02:08;;;;;;;19.80;9.90;;;;;;;-1.44;79.33;99948.33;105850;1253;72508;-28
2024/01/21 08:04:36;;;;;;;14.30;8.80;;;;;;;-1.32;79.22;99974.52;105711;1255;61133;-28
2024/01/21 08:07:03;;;;;;;19.40;11.40;;;;;;;-1.52;80.03;99980.14;105713;1258;61135;-28
2024/01/21 08:09:30;;;;;;;12.10;7.70;;;;;;;-1.51;80.98;99991.86;105958;1257;73256;-28
2024/01/21 08:11:57;;;;;;;16.10;8.40;;;;;;;-1.23;79.64;99991.58;105908;1255;74055;-28
2024/01/21 08:14:24;;;;;;;12.70;7.70;;;;;;;-0.94;78.38;100006.55;105893;1253;72664;-29
2024/01/21 08:16:51;;;;;;;17.60;11.10;;;;;;;-1.09;79.02;100010.40;105873;1252;61053;-28
2024/01/21 08:19:19;;;;;;;16.00;9.80;;;;;;;-1.53;80.08;100009.09;105913;1257;61074;-28
2024/01/21 08:21:47;;;;;;;17.40;10.80;;;;;;;-1.58;80.57;100013.62;105911;1257;73830;-28
2024/01/21 08:24:14;;;;;;;14.50;8.40;;;;;;;-1.05;78.99;100024.98;105957;1256;74315;-28
2024/01/21 08:26:41;;;;;;;13.40;8.50;;;;;;;-1.08;78.60;100026.94;105683;1254;72700;-28
2024/01/21 08:29:08;;;;;;;23.70;10.50;;;;;;;-1.01;77.91;100034.14;105849;1256;61023;-28
2024/01/21 08:31:42;;;;;;;15.50;9.10;;;;;;;-1.42;79.17;100036.02;105888;1254;61112;-28
2024/01/21 08:34:10;;;;;;;13.50;8.30;;;;;;;-1.43;79.26;100041.15;105712;1257;72559;-28
2024/01/21 08:36:37;;;;;;;17.80;9.50;;;;;;;-1.14;78.95;100050.05;105739;1260;73386;-28
2024/01/21 08:39:05;;;;;;;19.60;10.60;;;;;;;-0.82;77.17;100060.71;105830;1257;72625;-28
2024/01/21 08:41:34;;;;;;;13.40;7.70;;;;;;;-0.96;77.28;100068.81;105893;1255;61045;-29
2024/01/21 08:44:04;;;;;;;15.50;8.50;;;;;;;-1.09;77.89;100070.91;105902;1257;61041;-28
2024/01/21 08:46:31;;;;;;;17.10;9.20;;;;;;;-1.23;78.32;100071.33;105684;1260;74376;-28
2024/01/21 08:48:58;;;;;;;15.80;9.40;;;;;;;-1.36;78.84;100085.66;105964;1256;74413;-28
2024/01/21 08:51:26;;;;;;;13.60;8.80;;;;;;;-1.04;77.92;100094.70;105854;1254;72692;-28
2024/01/21 08:53:56;;;;;;;14.30;8.30;;;;;;;-0.83;77.16;100088.02;105759;1253;61042;-28
2024/01/21 08:56:26;;;;;;;13.50;8.30;;;;;;;-0.75;75.82;100097.09;105869;1257;61125;-28
2024/01/21 08:58:53;;;;;;;14.50;8.30;;;;;;;-1.05;76.88;100106.15;105860;1260;73878;-28
2024/01/21 09:01:21;;;;;;;11.50;8.50;;;;;;;-0.99;77.02;100117.27;105903;1260;74922;-28
2024/01/21 09:03:48;;;;;;;13.60;7.90;;;;;;;-1.55;79.11;100114.91;105880;1256;72434;-28
2024/01/21 09:06:15;;;;;;;12.70;8.50;;;;;;;-0.90;77.59;100117.98;105870;1258;61092;-28
2024/01/21 09:08:42;;;;;;;15.60;8.70;;;;;;;-0.79;76.10;100122.92;105645;1259;61132;-28
2024/01/21 09:11:09;;;;;;;14.40;8.90;;;;;;;-0.93;76.34;100123.14;105766;1257;73719;-28
2024/01/21 09:13:36;;;;;;;13.30;8.30;;;;;;;-1.15;77.05;100121.63;105746;1256;74365;-28
2024/01/21 09:16:03;;;;;;;10.50;7.00;;;;;;;-1.12;77.56;100118.33;105796;1256;72703;-28
2024/01/21 09:18:33;;;;;;;14.20;8.10;;;;;;;-1.25;77.56;100124.02;105746;1252;61748;-28
2024/01/21 09:22:20;;;;;;;11.70;7.00;;;;;;;-0.78;76.87;100129.19;102685;1294;600920;-28
2024/01/21 09:24:48;;;;;;;10.90;6.60;;;;;;;-0.52;74.88;100126.19;104762;1267;61174;-28
2024/01/21 09:27:16;;;;;;;11.20;7.10;;;;;;;-0.67;75.06;100129.02;104757;1272;61123;-29
2024/01/21 09:37:20;;;;;;;11.90;7.30;;;;;;;-0.58;75.46;100146.92;102672;1294;599348;-27
2024/01/21 09:39:48;;;;;;;10.20;6.00;;;;;;;-0.36;73.50;100149.60;104792;1267;61190;-29
2024/01/21 09:42:17;;;;;;;13.60;7.40;;;;;;;-0.67;74.50;100150.48;105448;1263;61100;-28
2024/01/21 09:52:20;;;;;;;9.30;5.90;;;;;;;-0.55;75.34;100172.82;102685;1292;600202;-28
2024/01/21 09:54:50;;;;;;;10.40;7.30;;;;;;;-0.53;74.03;100172.78;104831;1266;61156;-28
2024/01/21 09:57:17;;;;;;;11.20;5.20;;;;;;;-0.62;74.14;100181.13;104892;1265;61186;-28
2024/01/21 09:59:46;;;;;;;9.30;6.30;;;;;;;-0.48;73.42;100184.45;104910;1269;72798;-28
2024/01/21 10:10:00;;;;;;;10.10;5.50;;;;;;;-0.24;73.08;100194.60;102661;1293;598777;-25
2024/01/21 10:19:02;;;;;;;11.40;6.80;;;;;;;-0.66;73.54;100196.70;102710;1294;600306;-28
2024/01/21 10:21:30;;;;;;;8.60;6.40;;;;;;;-0.73;74.13;100197.66;105683;1260;61218;-28
2024/01/21 10:24:00;;;;;;;11.00;6.70;;;;;;;-0.82;74.25;100195.27;105658;1262;61195;-28
2024/01/21 10:34:03;;;;;;;7.60;4.70;;;;;;;-0.35;72.62;100207.08;102723;1293;600162;-28
2024/01/21 10:36:32;;;;;;;10.50;6.10;;;;;;;-0.28;72.15;100212.10;105038;1270;61193;-28
2024/01/21 10:39:02;;;;;;;6.70;4.70;;;;;;;-0.47;73.03;100219.77;104863;1272;61110;-28
2024/01/21 10:41:31;;;;;;;9.40;6.30;;;;;;;-0.70;73.59;100224.90;104848;1267;71170;-28
2024/01/21 10:44:00;;;;;;;9.00;5.00;;;;;;;-0.90;74.22;100226.59;105088;1267;74328;-28
2024/01/21 10:46:35;;;;;;;7.60;5.30;;;;;;;-0.43;72.30;100235.05;104864;1267;71447;-29
2024/01/21 10:49:02;;;;;;;6.70;5.10;;;;;;;-0.22;71.16;100233.15;104732;1264;61225;-28
2024/01/21 10:51:31;;;;;;;7.70;5.40;;;;;;;-0.55;71.75;100240.36;104987;1263;61085;-28
2024/01/21 10:53:59;;;;;;;6.90;4.40;;;;;;;-0.57;71.84;100239.70;105121;1264;71053;-28
2024/01/21 10:56:27;;;;;;;8.20;5.00;;;;;;;-0.64;71.90;100245.63;104949;1264;74325;-28
2024/01/21 10:58:54;;;;;;;8.60;4.80;;;;;;;-0.69;72.03;100249.45;105156;1264;71372;-28
2024/01/21 11:01:24;;;;;;;6.90;4.40;;;;;;;-0.77;72.76;100249.58;104939;1264;61186;-28
2024/01/21 11:04:13;;;;;;;7.20;4.20;;;;;;;-0.20;70.53;100253.27;104789;1264;61138;-28
2024/01/21 11:06:48;;;;;;;9.90;6.00;;;;;;;-0.22;69.80;100251.07;105149;1268;72416;-28
2024/01/21 11:09:22;;;;;;;11.40;5.30;;;;;;;-0.25;69.26;100257.45;105097;1269;76456;-28
2024/01/21 11:11:50;;;;;;;;;;;;;;;-0.57;70.06;100257.98;104798;1269;74875;-28
2024/01/21 11:14:33;;;;;;;7.90;4.80;;;;;;;-1.08;72.20;100263.50;105060;1264;61151;-28
2024/01/21 11:17:17;;;;;;;8.30;5.20;;;;;;;-0.88;72.04;100263.05;104887;1264;61134;-28
2024/01/21 11:19:55;;;;;;;;;;;;;;;-0.77;71.63;100269.87;104947;1264;73054;-28
2024/01/21 11:22:25;;;;;;;8.50;5.20;;;;;;;-0.90;72.10;100270.06;105056;1269;73548;-28
2024/01/21 11:24:55;;;;;;;7.30;5.10;;;;;;;-0.06;69.79;100280.66;105134;1261;73720;-28
2024/01/21 11:27:25;;;;;;;5.60;3.90;;;;;;;-0.22;69.06;100280.25;105263;1258;61078;-28
2024/01/21 11:29:55;;;;;;;6.80;5.00;;;;;;;-0.33;69.47;100281.80;105296;1260;61157;-28
2024/01/21 11:32:28;;;;;;;15.60;4.80;;;;;;;-0.19;69.33;100281.91;105297;1261;75148;-28
2024/01/21 11:35:13;;;;;;;7.60;4.80;;;;;;;-0.56;69.58;100277.40;105096;1260;73390;-28
2024/01/21 11:37:41;;;;;;;6.40;4.10;;;;;;;-0.50;69.77;100286.86;104935;1261;74676;-29
2024/01/21 11:40:09;;;;;;;5.30;4.30;;;;;;;-0.66;70.57;100288.48;105451;1260;61199;-26
2024/01/21 11:42:37;;;;;;;8.70;6.20;;;;;;;-0.93;71.19;100294.31;105584;1253;61231;-26
2024/01/21 11:45:06;;;;;;;4.30;3.40;;;;;;;-1.04;71.98;100296.00;105856;1254;71568;-26
2024/01/21 11:47:35;;;;;;;8.80;4.50;;;;;;;-0.52;70.60;100302.92;105682;1255;74276;-26
2024/01/21 11:50:04;;;;;;;6.30;4.50;;;;;;;-0.36;69.34;100304.04;105606;1255;74329;-27
2024/01/21 11:52:33;;;;;;;7.80;4.50;;;;;;;-0.55;69.85;100308.09;105544;1258;61212;-26
2024/01/21 11:55:02;;;;;;;6.40;4.30;;;;;;;-0.88;70.74;100306.88;105334;1252;60960;-26
2024/01/21 11:57:30;;;;;;;16.30;7.40;;;;;;;-0.94;71.27;100308.14;105583;1254;75142;-26
2024/01/21 11:59:58;;;;;;;20.90;8.00;;;;;;;-0.86;71.26;100311.27;105489;1254;74320;-26
2024/01/21 12:02:25;;;;;;;10.90;6.30;;;;;;;-1.10;71.59;100314.48;105533;1254;74906;-26
2024/01/21 12:04:56;;;;;;;7.10;4.80;;;;;;;-1.08;72.28;100318.55;105521;1256;61173;-26
2024/01/21 12:07:25;;;;;;;10.90;6.20;;;;;;;-0.63;70.11;100315.36;105545;1254;61218;-27
2024/01/21 12:09:53;;;;;;;7.50;4.70;;;;;;;-0.73;70.51;100320.46;105593;1255;71772;-27
2024/01/21 12:12:21;;;;;;;9.40;5.20;;;;;;;-0.72;70.19;100323.17;105773;1254;74671;-27
2024/01/21 12:14:49;;;;;;;9.30;6.40;;;;;;;-0.55;70.48;100325.83;105881;1257;71014;-27
2024/01/21 12:24:56;;;;;;;7.40;5.70;;;;;;;-1.08;71.49;100342.60;102734;1292;599838;-28
2024/01/21 12:35:04;;;;;;;7.20;5.10;;;;;;;-0.72;70.40;100351.66;102651;1296;599294;-28
2024/01/21 12:37:32;;;;;;;8.90;5.00;;;;;;;-0.69;70.06;100354.36;104967;1266;61131;-28
2024/01/21 12:40:00;;;;;;;9.50;6.10;;;;;;;-1.00;71.78;100351.19;104808;1266;61063;-28
2024/01/21 12:42:28;;;;;;;10.80;6.00;;;;;;;-1.03;72.20;100352.77;104905;1266;70994;-28
2024/01/21 12:44:56;;;;;;;9.90;6.00;;;;;;;-1.08;72.16;100357.77;104891;1266;74320;-28
2024/01/21 12:47:24;;;;;;;9.00;4.20;;;;;;;-1.28;72.60;100359.02;104811;1272;72727;-28
2024/01/21 12:49:54;;;;;;;7.40;4.40;;;;;;;-0.84;71.70;100360.17;105012;1264;182982;-28
2024/01/21 12:52:21;;;;;;;7.20;4.60;;;;;;;-0.79;71.14;100364.55;104816;1267;61260;-28
2024/01/21 12:54:49;;;;;;;9.10;4.80;;;;;;;-0.60;70.77;100365.14;105072;1267;71276;-28